• Join FlightAware (Why Join?)
  • Login
  • US Flag 
12:51PM EDT


 

Airport Tracker/Info


-or-


 

Live Flight TrackerFlight Track Log ✈ AWE433 ✈ 08-May-2013 ✈ KLAS - KPHL

Flight Track Log - Related Links

Times and Time Zones

All times are in EDT time to prevent confusion due to time zone crossing. See the AWE433 flight status page for this flight to view local times or setup timezone preferences in your user account.

Time Position Orientation Groundspeed Altitude Reporting Facility
EDT Latitude Longitude Course Direction KTS MPH feet Rate Location/Type
03:31AM 36.0761 -115.1683 206° Southwest 170 196 3,000  Level Los Angeles Center
03:32AM 36.0731 -115.2436 267° West 221 254 4,400 1,800 Climbing Los Angeles Center
03:33AM 36.0419 -115.2664 211° Southwest 241 277 6,200 2,700 Climbing Los Angeles Center
03:33AM 36.0142 -115.2711 188° South 237 273 7,200 1,860 Climbing Los Angeles Center
03:34AM 35.9903 -115.2258 123° Southeast 265 305 8,100 2,100 Climbing Los Angeles Center
03:35AM 35.9883 -115.1261 91° East 286 329 10,600 1,800 Climbing Los Angeles Center
03:36AM 35.9825 -115.0114 94° East 320 368 11,800 1,620 Climbing Los Angeles Center
03:37AM 36.0611 -115.1636 206° Southwest  Level FlightAware Approximate
03:37AM 35.9756 -114.8797 94° East 373 429 13,900  Level Los Angeles Center
03:38AM 35.9683 -114.7467 94° East 387 445 15,900 1,920 Climbing Los Angeles Center
03:39AM 35.9611 -114.6072 94° East 406 467 17,800 1,740 Climbing Los Angeles Center
03:40AM 35.9539 -114.4625 93° East 420 483 19,500 1,680 Climbing Los Angeles Center
03:41AM 35.9456 -114.3169 94° East 426 490 21,200 1,500 Climbing Los Angeles Center
03:42AM 35.9375 -114.1661 94° East 439 505 22,600 1,380 Climbing Los Angeles Center
03:43AM 35.9292 -114.0131 94° East 447 514 24,000 1,260 Climbing Los Angeles Center
03:44AM 35.9169 -113.8569 95° East 455 524 25,200 1,020 Climbing Los Angeles Center
03:45AM 35.8908 -113.6997 102° East 467 537 26,100 1,020 Climbing Los Angeles Center
03:46AM 35.8617 -113.5172 101° East 482 555 27,300 1,020 Climbing Los Angeles Center
03:47AM 35.8356 -113.3539 101° East 486 559 28,200 900 Climbing Los Angeles Center
03:48AM 35.8094 -113.1883 101° East 491 565 29,200 1,200 Climbing Los Angeles Center
03:49AM 35.7819 -113.0208 101° East 495 570 30,600 1,080 Climbing Los Angeles Center
03:50AM 35.7603 -112.8875 101° East 495 570 31,400 840 Climbing Los Angeles Center
03:51AM 35.7328 -112.7211 101° East 493 567 32,400 780 Climbing Los Angeles Center
03:52AM 35.7053 -112.5542 101° East 496 571 33,000 300 Climbing Los Angeles Center
03:53AM 35.6769 -112.3819 101° East 508 585 33,000  Level Los Angeles Center
03:54AM 35.6458 -112.2083 102° East 517 595 33,000  Level Los Angeles Center
03:55AM 35.6103 -112.0025 102° East 517 595 33,000  Level Albuquerque Center
03:56AM 35.5892 -111.8283 98° East 516 594 33,000  Level Albuquerque Center
03:57AM 35.5853 -111.6536 92° East 514 592 33,000  Level Albuquerque Center
03:58AM 35.5792 -111.4781 92° East 515 593 33,000  Level Albuquerque Center
03:59AM 35.5744 -111.3061 92° East 517 595 33,000  Level Albuquerque Center
04:00AM 35.5694 -111.1364 92° East 519 597 33,000  Level Albuquerque Center
04:01AM 35.5614 -110.9378 93° East 521 600 33,000  Level Albuquerque Center
04:02AM 35.5561 -110.7689 92° East 520 598 33,000  Level Albuquerque Center
04:03AM 35.5503 -110.6006 92° East 519 597 33,000  Level Albuquerque Center
04:04AM 35.5442 -110.4314 92° East 519 597 33,000  Level Albuquerque Center
04:05AM 35.5375 -110.2364 92° East 514 592 33,000 -60 Level Albuquerque Center
04:06AM 35.5297 -110.0667 93° East 518 596 32,900  Descending Albuquerque Center
04:07AM 35.5233 -109.8972 93° East 521 600 33,000 60 Climbing Albuquerque Center
04:08AM 35.5156 -109.6983 93° East 523 602 33,100  Climbing Albuquerque Center
04:09AM 35.5078 -109.5283 93° East 523 602 33,000 -60 Descending Albuquerque Center
04:10AM 35.5006 -109.3578 93° East 524 603 33,000  Level Albuquerque Center
04:11AM 35.4919 -109.1900 94° East 520 598 33,000  Level Albuquerque Center
04:12AM 35.4831 -108.9939 93° East 519 597 33,000  Level Albuquerque Center
04:13AM 35.4783 -108.8256 92° East 519 597 33,000  Level Albuquerque Center
04:14AM 35.4911 -108.6572 85° East 521 600 33,000  Level Albuquerque Center
04:15AM 35.5031 -108.4619 86° East 519 597 33,000  Level Albuquerque Center
04:16AM 35.5136 -108.2939 86° East 518 596 33,000  Level Albuquerque Center
04:17AM 35.5236 -108.1244 86° East 521 600 33,000  Level Albuquerque Center
04:18AM 35.5339 -107.9272 86° East 521 600 33,000  Level Albuquerque Center
04:19AM 35.5431 -107.7550 86° East 525 604 33,000  Level Albuquerque Center
04:20AM 35.5525 -107.5822 86° East 529 609 33,000  Level Albuquerque Center
04:21AM 35.5614 -107.4097 86° East 530 610 33,000  Level Albuquerque Center
04:22AM 35.5719 -107.2078 86° East 531 611 33,000  Level Albuquerque Center
04:23AM 35.5803 -107.0400 86° East 532 612 33,000  Level Albuquerque Center
04:24AM 35.5894 -106.8583 86° East 529 609 33,000  Level Albuquerque Center
04:25AM 35.5978 -106.6778 87° East 527 606 33,000  Level Albuquerque Center
04:26AM 35.6058 -106.4981 87° East 525 604 33,000  Level Albuquerque Center
04:27AM 35.6153 -106.3222 86° East 518 596 33,000  Level Albuquerque Center
04:28AM 35.6217 -106.1461 87° East 515 593 33,000  Level Albuquerque Center
04:29AM 35.6286 -105.9717 87° East 512 589 33,000  Level Albuquerque Center
04:30AM 35.6369 -105.7994 87° East 506 582 33,000  Level Albuquerque Center
04:31AM 35.6439 -105.6267 87° East 506 582 33,000  Level Albuquerque Center
04:32AM 35.6717 -105.4617 78° East 506 582 33,000  Level Albuquerque Center
04:33AM 35.7003 -105.2906 78° East 505 581 33,000  Level Albuquerque Center
04:34AM 35.7267 -105.1203 79° East 501 577 33,000  Level Albuquerque Center
04:35AM 35.7531 -104.9517 79° East 498 573 33,000  Level Albuquerque Center
04:36AM 35.7803 -104.7822 79° East 498 573 33,000  Level Albuquerque Center
04:37AM 35.8078 -104.6122 79° East 498 573 33,000  Level Albuquerque Center
04:38AM 35.8350 -104.4422 79° East 500 575 33,000  Level Albuquerque Center
04:39AM 35.8622 -104.2722 79° East 499 574 33,000  Level Albuquerque Center
04:40AM 35.8886 -104.1011 79° East 501 577 33,000  Level Albuquerque Center
04:41AM 35.9150 -103.9317 79° East 499 574 33,000  Level Albuquerque Center
04:42AM 35.9403 -103.7622 80° East 497 572 33,000  Level Albuquerque Center
04:43AM 35.9614 -103.6228 79° East 494 568 33,000  Level Albuquerque Center
04:44AM 35.9864 -103.4553 80° East 492 566 33,000  Level Albuquerque Center
04:45AM 36.0108 -103.2883 80° East 490 564 33,000  Level Albuquerque Center
04:46AM 36.0358 -103.1208 79° East 491 565 33,000  Level Albuquerque Center
04:47AM 36.0592 -102.9539 80° East 489 563 33,000  Level Albuquerque Center
04:48AM 36.0842 -102.7811 80° East 486 559 33,000  Level Albuquerque Center
04:49AM 36.1075 -102.6167 80° East 487 560 33,000  Level Albuquerque Center
04:50AM 36.1311 -102.4531 80° East 483 556 33,000  Level Albuquerque Center
04:51AM 36.1536 -102.2892 80° East 483 556 33,000  Level Albuquerque Center
04:52AM 36.1761 -102.1233 80° East 484 557 33,000  Level Albuquerque Center
04:53AM 36.1986 -101.9583 80° East 486 559 33,000  Level Albuquerque Center
04:54AM 36.2206 -101.7933 81° East 486 559 33,000  Level Albuquerque Center
04:55AM 36.2422 -101.6297 81° East 483 556 33,000  Level Albuquerque Center
04:56AM 36.2642 -101.4650 81° East 483 556 33,000  Level Albuquerque Center
04:57AM 36.2864 -101.3006 80° East 484 557 33,000  Level Albuquerque Center
04:58AM 36.3072 -101.1344 81° East 482 555 33,000  Level Albuquerque Center
04:59AM 36.3267 -100.9767 81° East 484 557 33,000  Level Albuquerque Center
05:00AM 36.3486 -100.8014 81° East 482 555 33,000  Level Albuquerque Center
05:01AM 36.3515 -100.7841 81° East  Level FlightAware Approximate
05:01AM 36.3694 -100.6367 81° East 482 555 33,000  Level Albuquerque Center
05:02AM 36.3892 -100.4708 82° East 483 556 33,000  Level Albuquerque Center
05:03AM 36.4100 -100.3039 81° East 486 559 33,000  Level Albuquerque Center
05:04AM 36.4350 -100.1039 81° East 489 563 33,000  Level Kansas City Center
05:05AM 36.4539 -99.9381 82° East 487 560 33,000  Level Kansas City Center
05:06AM 36.4733 -99.7714 82° East 485 558 33,000  Level Kansas City Center
05:07AM 36.4942 -99.6022 81° East 488 562 33,000  Level Kansas City Center
05:08AM 36.5128 -99.4350 82° East 486 559 33,000  Level Kansas City Center
05:09AM 36.5308 -99.2664 82° East 486 559 33,000  Level Kansas City Center
05:10AM 36.5497 -99.0994 82° East 484 557 33,000  Level Kansas City Center
05:11AM 36.5681 -98.9317 82° East 485 558 33,000  Level Kansas City Center
05:12AM 36.5858 -98.7639 82° East 485 558 33,000  Level Kansas City Center
05:13AM 36.6036 -98.5969 82° East 485 558 33,000  Level Kansas City Center
05:14AM 36.6200 -98.4319 83° East 482 555 33,000  Level Kansas City Center
05:15AM 36.6367 -98.2683 83° East 478 550 33,000  Level Kansas City Center
05:16AM 36.6539 -98.1058 82° East 474 545 33,000  Level Kansas City Center
05:17AM 36.6703 -97.9458 83° East 469 540 33,000  Level Kansas City Center
05:18AM 36.6858 -97.7844 83° East 467 537 33,000  Level Kansas City Center
05:19AM 36.7008 -97.6350 83° East 464 534 33,000 -60 Level Kansas City Center
05:20AM 36.7158 -97.4789 83° East 460 529 32,900 -60 Descending Kansas City Center
05:21AM 36.7314 -97.3158 83° East 459 528 32,900  Level Kansas City Center
05:23AM 36.7464 -97.1544 83° East 464 534 33,000  Climbing Kansas City Center
05:24AM 36.7758 -96.9900 77° East 462 532 33,000  Level Kansas City Center
05:25AM 36.8033 -96.8314 78° East 466 536 33,100  Climbing Kansas City Center
05:26AM 36.8308 -96.6728 78° East 465 535 33,000 -60 Descending Kansas City Center
05:27AM 36.8572 -96.5172 78° East 460 529 33,000 300 Level Kansas City Center
05:28AM 36.8733 -96.3553 83° East 470 541 33,700 840 Climbing Kansas City Center
05:29AM 36.8819 -96.1911 86° East 474 545 34,700 600 Climbing Kansas City Center
05:30AM 36.8906 -96.0247 86° East 475 547 35,000 120 Climbing Kansas City Center
05:31AM 36.8981 -95.8561 87° East 480 552 35,000  Level Kansas City Center
05:32AM 36.9072 -95.6853 86° East 485 558 35,000  Level Kansas City Center
05:33AM 36.9336 -95.5172 79° East 486 559 35,000  Level Kansas City Center
05:34AM 36.9622 -95.3511 78° East 485 558 35,100  Climbing Kansas City Center
05:35AM 36.9878 -95.1869 79° East 480 552 35,000 -60 Descending Kansas City Center
05:36AM 37.0147 -95.0206 78° East 482 555 35,000  Level Kansas City Center
05:37AM 37.0411 -94.8558 79° East 482 555 35,000  Level Kansas City Center
05:38AM 37.0658 -94.6911 79° East 481 554 35,000  Level Kansas City Center
05:39AM 37.0894 -94.5281 80° East 477 549 35,000  Level Kansas City Center
05:40AM 37.1150 -94.3664 79° East 473 544 35,000  Level Kansas City Center
05:41AM 37.1403 -94.2081 79° East 466 536 35,000  Level Kansas City Center
05:42AM 37.1642 -94.0439 80° East 468 539 35,000  Level Kansas City Center
05:43AM 37.1881 -93.8800 80° East 473 544 35,000  Level Kansas City Center
05:44AM 37.2136 -93.7164 79° East 477 549 35,100  Climbing Kansas City Center
05:45AM 37.2375 -93.5547 79° East 472 543 35,100 -60 Level Kansas City Center
05:46AM 37.2606 -93.3922 80° East 472 543 35,000 -60 Descending Kansas City Center
05:47AM 37.2839 -93.2322 80° East 470 541 35,000  Level Kansas City Center
05:48AM 37.3064 -93.0742 80° East 463 533 35,000 -60 Level Kansas City Center
05:49AM 37.3283 -92.9186 80° East 457 526 34,900  Descending Kansas City Center
05:50AM 37.3503 -92.7603 80° East 459 528 35,000  Climbing Kansas City Center
05:51AM 37.3719 -92.6014 80° East 462 532 35,000  Level Kansas City Center
05:52AM 37.3931 -92.4417 81° East 464 534 35,000  Level Kansas City Center
05:53AM 37.4136 -92.2831 81° East 463 533 35,100  Climbing Kansas City Center
05:54AM 37.4358 -92.1261 80° East 460 529 35,000 -60 Descending Kansas City Center
05:55AM 37.4561 -91.9689 81° East 458 527 35,000  Level Kansas City Center
05:56AM 37.4772 -91.8106 80° East 459 528 35,000  Level Kansas City Center
05:57AM 37.4983 -91.6519 80° East 460 529 35,000  Level Kansas City Center
05:58AM 37.5181 -91.4925 81° East 461 531 35,000  Level Kansas City Center
05:59AM 37.5383 -91.3356 81° East 457 526 35,000  Level Kansas City Center
06:00AM 37.5575 -91.1781 81° East 455 524 35,000 -60 Level Kansas City Center
06:01AM 37.5775 -91.0222 81° East 453 521 34,900  Descending Kansas City Center
06:02AM 37.5956 -90.8656 82° East 452 520 35,000  Climbing Kansas City Center
06:03AM 37.6139 -90.7044 82° East 455 524 35,000  Level Kansas City Center
06:04AM 37.6331 -90.5481 81° East 453 521 35,000  Level Kansas City Center
06:05AM 37.6508 -90.3925 82° East 452 520 35,000  Level Kansas City Center
06:06AM 37.6694 -90.2364 81° East 453 521 35,000  Level Kansas City Center
06:07AM 37.6872 -90.0761 82° East 458 527 35,000  Level Kansas City Center
06:08AM 37.7056 -89.9147 82° East 462 532 35,000  Level Kansas City Center
06:09AM 37.7233 -89.7556 82° East 463 533 35,000  Level Kansas City Center
06:10AM 37.7408 -89.5969 82° East 462 532 35,000  Level Kansas City Center
06:11AM 37.7586 -89.4386 82° East 459 528 35,000  Level Kansas City Center
06:12AM 37.7764 -89.2744 82° East 458 527 35,000  Level Kansas City Center
06:13AM 37.7925 -89.1167 83° East 454 522 35,000  Level Kansas City Center
06:14AM 37.8117 -88.9381 82° East 450 518 35,000  Level Kansas City Center
06:15AM 37.8256 -88.7872 83° East 441 507 35,000  Level Kansas City Center
06:16AM 37.8428 -88.6344 82° East 439 505 35,000  Level Kansas City Center
06:17AM 37.8581 -88.4814 83° East 438 504 35,000  Level Kansas City Center
06:18AM 37.8739 -88.3258 83° East 442 509 35,000  Level Kansas City Center
06:19AM 37.8886 -88.1717 83° East 441 507 35,000  Level Kansas City Center
06:20AM 37.9039 -88.0172 83° East 442 509 35,000  Level Kansas City Center
06:21AM 37.9189 -87.8625 83° East 442 509 35,000  Level Kansas City Center
06:22AM 37.9331 -87.7064 83° East 444 511 35,000  Level Kansas City Center
06:22AM 37.9361 -87.6761 83° East 446 513 35,000  Level Indianapolis Center
06:23AM 37.9500 -87.5194 84° East 447 514 35,000  Level Indianapolis Center
06:24AM 37.9636 -87.3619 84° East 450 518 35,000  Level Indianapolis Center
06:25AM 37.9761 -87.2061 84° East 449 517 35,100  Climbing Indianapolis Center
06:26AM 37.9897 -87.0503 84° East 448 516 35,000 -60 Descending Indianapolis Center
06:27AM 38.0022 -86.8969 84° East 442 509 35,000  Level Indianapolis Center
06:28AM 38.0147 -86.7444 84° East 439 505 35,000  Level Indianapolis Center
06:29AM 38.0297 -86.5606 84° East 438 504 35,000  Level Indianapolis Center
06:30AM 38.0364 -86.4050 87° East 441 507 35,000  Level Indianapolis Center
06:31AM 38.0325 -86.2503 92° East 440 506 35,100  Climbing Indianapolis Center
06:32AM 38.0281 -86.0972 92° East 435 501 35,000 -60 Descending Indianapolis Center
06:33AM 38.0242 -85.9431 92° East 435 501 35,000  Level Indianapolis Center
06:34AM 38.0194 -85.7914 92° East 430 495 35,000  Level Indianapolis Center
06:35AM 38.0142 -85.6397 92° East 432 497 35,000  Level Indianapolis Center
06:36AM 38.0103 -85.4878 92° East 431 496 35,000  Level Indianapolis Center
06:37AM 38.0050 -85.3347 92° East 433 498 35,000  Level Indianapolis Center
06:38AM 37.9989 -85.1919 93° East 431 496 35,000  Level Indianapolis Center
06:39AM 37.9939 -85.0389 92° East 433 498 35,000  Level Indianapolis Center
06:40AM 37.9875 -84.8592 93° East 437 503 35,000  Level Indianapolis Center
06:41AM 37.9811 -84.7056 93° East 435 501 35,000  Level Indianapolis Center
06:42AM 37.9739 -84.5528 93° East 434 499 35,000  Level Indianapolis Center
06:43AM 37.9681 -84.4019 93° East 429 494 35,000  Level Indianapolis Center
06:44AM 37.9608 -84.2486 93° East 433 498 35,000  Level Indianapolis Center
06:45AM 37.9533 -84.0928 93° East 440 506 35,000  Level Indianapolis Center
06:46AM 37.9469 -83.9367 93° East 444 511 35,000  Level Indianapolis Center
06:47AM 37.9400 -83.7781 93° East 449 517 35,000  Level Indianapolis Center
06:48AM 37.9311 -83.6233 94° East 441 507 35,000  Level Indianapolis Center
06:49AM 37.9236 -83.4694 93° East 437 503 35,000  Level Indianapolis Center
06:50AM 37.9150 -83.3167 94° East 432 497 35,000  Level Indianapolis Center
06:52AM 37.9075 -83.1644 94° East 433 498 35,000  Level Indianapolis Center
06:53AM 37.8994 -83.0078 94° East 439 505 35,000  Level Indianapolis Center
06:54AM 37.8906 -82.8506 94° East 443 510 35,000  Level Indianapolis Center
06:55AM 37.8817 -82.6942 94° East 446 513 35,000  Level Indianapolis Center
06:56AM 37.8739 -82.5358 94° East 449 517 35,000  Level Indianapolis Center
06:57AM 37.8631 -82.3761 95° East 453 521 35,000  Level Indianapolis Center
06:58AM 37.8539 -82.2161 94° East 454 522 35,000  Level Indianapolis Center
06:59AM 37.8436 -82.0533 95° East 461 531 35,000  Level Indianapolis Center
07:00AM 37.8328 -81.8933 95° East 456 525 35,000  Level Indianapolis Center
07:01AM 37.8228 -81.7347 95° East 453 521 35,000  Level Indianapolis Center
07:02AM 37.8108 -81.5489 95° East 452 520 35,000  Level Indianapolis Center
07:03AM 37.7994 -81.3936 95° East 446 513 35,000  Level Indianapolis Center
07:03AM 37.7942 -81.3658 104° East 453 521 35,000  Level Washington Center
07:04AM 37.7853 -81.2072 94° East 448 516 35,000  Level Washington Center
07:05AM 37.7839 -81.0522 91° East 448 516 35,000  Level Washington Center
07:06AM 37.7961 -80.8744 85° East 448 516 35,000  Level Washington Center
07:07AM 37.8069 -80.7200 85° East 443 510 35,000  Level Washington Center
07:08AM 37.8181 -80.5603 85° East 443 510 35,000  Level Washington Center
07:09AM 37.8286 -80.3981 85° East 443 510 35,000  Level Washington Center
07:10AM 37.8364 -80.2567 86° East 454 522 35,000  Level Washington Center
07:11AM 37.8489 -80.0969 84° East 459 528 35,000 -480 Level Washington Center
07:12AM 37.8589 -79.9369 85° East 459 528 34,100 -960 Descending Washington Center
07:13AM 37.8667 -79.7769 86° East 459 528 33,100 -600 Descending Washington Center
07:14AM 37.8764 -79.6169 86° East 459 528 33,000 -60 Descending Washington Center
07:15AM 37.8864 -79.4411 86° East 459 528 33,000  Level Washington Center
07:16AM 37.8956 -79.2811 86° East 459 528 33,000  Level Washington Center
07:17AM 37.9044 -79.1183 86° East 459 528 33,000  Level Washington Center
07:18AM 37.9217 -78.9561 82° East 459 528 33,000  Level Washington Center
07:19AM 37.9406 -78.7989 81° East 459 528 33,000  Level Washington Center
07:20AM 37.9614 -78.6392 81° East 459 528 33,000  Level Washington Center
07:21AM 37.9775 -78.4922 82° East 466 536 33,000  Level Washington Center
07:22AM 37.9981 -78.3322 81° East 461 531 33,000  Level Washington Center
07:23AM 38.0225 -78.1672 79° East 455 524 33,000  Level Washington Center
07:24AM 38.0778 -78.0264 63° Northeast 434 499 33,000  Level Washington Center
07:25AM 38.1472 -77.8889 57° Northeast 439 505 33,000 -300 Level Washington Center
07:26AM 38.2142 -77.7533 58° Northeast 444 511 32,400 -840 Descending Washington Center
07:27AM 38.2792 -77.6206 58° Northeast 449 517 31,400 -960 Descending Washington Center
07:28AM 38.3397 -77.4925 59° Northeast 438 504 30,500 -960 Descending Washington Center
07:29AM 38.3500 -77.3550 85° East 400 460 29,500 -960 Descending Washington Center
07:30AM 38.3561 -77.2200 87° East 386 444 28,600 -1,680 Descending Washington Center
07:31AM 38.3828 -77.0961 75° East 381 438 26,100 -1,680 Descending Washington Center
07:32AM 38.4567 -77.0156 40° Northeast 363 418 25,200 -960 Descending Washington Center
07:33AM 38.5347 -76.9294 41° Northeast 363 418 24,200 -660 Descending Washington Center
07:34AM 38.6128 -76.8458 40° Northeast 363 418 24,000 -600 Descending Washington Center
07:35AM 38.6889 -76.7592 42° Northeast 363 418 23,100 -1,380 Descending Washington Center
07:36AM 38.7253 -76.6453 68° East 344 396 21,300 -1,620 Descending Washington Center
07:37AM 38.7492 -76.5258 76° East 338 389 20,000 -1,140 Descending Washington Center
07:38AM 38.7753 -76.3983 75° East 346 398 19,100 -1,440 Descending Washington Center
07:39AM 38.8031 -76.2683 75° East 363 418 17,100 -2,040 Descending Washington Center
07:40AM 38.8308 -76.1353 75° East 375 432 15,100 -1,080 Descending Washington Center
07:41AM 38.8564 -76.0075 76° East 375 432 15,000 -420 Descending Washington Center
07:42AM 38.8839 -75.8878 74° East 364 419 14,300 -1,440 Descending Washington Center
07:43AM 38.9464 -75.7864 52° Northeast 350 403 12,300 -1,560 Descending Washington Center
07:44AM 39.0236 -75.7144 36° Northeast 336 387 11,300 -960 Descending Washington Center
07:45AM 39.1133 -75.6744 19° North 336 387 10,400 -480 Descending Washington Center
07:47AM 39.3000 -75.6500 North 308 354 10,000 -420 Descending Philadelphia TRACON
07:48AM 39.3833 -75.6167 17° North 303 349 9,300 -1,140 Descending Philadelphia TRACON
07:49AM 39.4500 -75.5833 21° North 294 338 7,800 -1,200 Descending Philadelphia TRACON
07:50AM 39.5333 -75.5667 North 288 331 7,000 -900 Descending Philadelphia TRACON
07:51AM 39.6000 -75.5833 349° North 285 328 6,000 -900 Descending Philadelphia TRACON
07:52AM 39.6833 -75.6000 351° North 238 274 5,300 -1,020 Descending Philadelphia TRACON
07:53AM 39.7333 -75.5833 14° North 230 265 4,000 -720 Descending Philadelphia TRACON
07:54AM 39.7833 -75.5333 38° Northeast 226 260 3,900 -120 Descending Philadelphia TRACON